8IL9 weather

Little Sister Seaplane Base
Hennepin, Illinois, United States

Public forecast

Using degrees Fahrenheit for public forecast. Weather courtesy of forecast.io.

METAR (pilot weather report)

Closest report is Marshall County Airport, 11.0 nm (20.3 km) S. Retrieved 2019/08/20 23:35 UTC (0 seconds ago):

KC75 202335Z AUTO 36004KT 10SM CLR 27/21 A2992 RMK AO2 T02660206

TAF (pilot weather forecast)

Closest forecast is General Wayne A. Downing Peoria International Airport, 35.7 nm (66.2 km) SSW. Retrieved 2019/08/20 18:48 UTC (5 hours ago):

TAF KPIA 201747Z 2018/2118 19008KT P6SM FEW030 BKN120 FM210000 VRB03KT P6SM SCT120 BKN250 TEMPO 2109/2112 4SM BR FM211200 VRB03KT P6SM BKN027 FM211500 31005KT P6SM BKN012